createdAt,value
2022-09-28T00:01:08.502Z,10.93
2022-09-28T00:03:36.147Z,11.00
2022-09-28T00:06:08.753Z,10.94
2022-09-28T00:08:36.439Z,10.99
2022-09-28T00:11:05.188Z,10.91
2022-09-28T00:13:33.293Z,10.91
2022-09-28T00:16:01.997Z,10.87
2022-09-28T00:18:28.622Z,10.95
2022-09-28T00:21:06.649Z,10.82
2022-09-28T00:23:35.001Z,10.88
2022-09-28T00:26:03.775Z,10.88
2022-09-28T00:28:31.506Z,10.86
2022-09-28T00:30:58.980Z,10.88
2022-09-28T00:33:25.780Z,10.85
2022-09-28T00:35:58.571Z,10.86
2022-09-28T00:38:29.499Z,10.77
2022-09-28T00:40:56.471Z,10.92
2022-09-28T00:43:24.121Z,10.89
2022-09-28T00:46:04.587Z,10.82
2022-09-28T00:48:38.462Z,10.83
2022-09-28T00:51:10.376Z,10.95
2022-09-28T00:53:40.033Z,10.92
2022-09-28T00:56:12.705Z,10.81
2022-09-28T00:58:44.832Z,10.71
2022-09-28T01:01:12.594Z,10.78
2022-09-28T01:03:45.239Z,10.75
2022-09-28T01:06:17.991Z,10.74
2022-09-28T01:08:47.763Z,10.72
2022-09-28T01:11:14.279Z,10.66
2022-09-28T01:13:41.691Z,10.63
2022-09-28T01:16:15.038Z,10.57
2022-09-28T01:19:00.447Z,10.63
2022-09-28T01:21:27.288Z,10.58
2022-09-28T01:24:25.914Z,10.69
2022-09-28T01:26:52.392Z,10.64
2022-09-28T01:29:36.515Z,10.54
2022-09-28T01:32:21.098Z,10.54
2022-09-28T01:35:07.330Z,10.50
2022-09-28T01:37:49.324Z,10.60
2022-09-28T01:40:17.338Z,10.58
2022-09-28T01:42:46.880Z,10.56
2022-09-28T01:45:27.166Z,10.65
2022-09-28T01:47:59.793Z,10.62
2022-09-28T01:50:30.322Z,10.63
2022-09-28T01:53:09.858Z,10.56
2022-09-28T01:55:45.003Z,10.53
2022-09-28T01:58:40.092Z,10.54
2022-09-28T02:01:15.147Z,10.47
2022-09-28T02:03:50.129Z,10.54
2022-09-28T02:06:25.193Z,10.55
2022-09-28T02:09:00.235Z,10.45
2022-09-28T02:11:27.379Z,10.62
2022-09-28T02:13:59.969Z,10.61
2022-09-28T02:16:40.697Z,10.58
2022-09-28T02:19:23.130Z,10.53
2022-09-28T02:21:58.678Z,10.54
2022-09-28T02:24:38.998Z,10.56
2022-09-28T02:27:21.137Z,10.58
2022-09-28T02:29:49.314Z,10.58
2022-09-28T02:32:19.750Z,10.58
2022-09-28T02:34:46.438Z,10.58
2022-09-28T02:37:13.234Z,10.58
2022-09-28T02:39:39.780Z,10.66
2022-09-28T02:42:15.078Z,10.68
2022-09-28T02:45:08.922Z,10.52
2022-09-28T02:47:52.310Z,10.50
2022-09-28T02:50:34.603Z,10.57
2022-09-28T02:53:22.963Z,10.65
2022-09-28T02:56:04.877Z,10.67
2022-09-28T02:58:55.118Z,10.72
2022-09-28T03:01:33.276Z,10.64
2022-09-28T03:04:11.239Z,10.62
2022-09-28T03:06:41.815Z,10.61
2022-09-28T03:09:41.583Z,10.64
2022-09-28T03:12:12.463Z,10.55
2022-09-28T03:14:39.441Z,10.60
2022-09-28T03:17:06.037Z,10.50
2022-09-28T03:19:34.799Z,10.48
2022-09-28T03:22:01.809Z,10.54
2022-09-28T03:24:28.491Z,10.36
2022-09-28T03:26:55.083Z,10.45
2022-09-28T03:29:21.666Z,10.41
2022-09-28T03:31:49.227Z,10.42
2022-09-28T03:34:16.036Z,10.39
2022-09-28T03:36:43.109Z,10.31
2022-09-28T03:39:09.744Z,10.40
2022-09-28T03:41:36.360Z,10.37
2022-09-28T03:44:03.226Z,10.34
2022-09-28T03:46:29.941Z,10.32
2022-09-28T03:48:58.544Z,10.42
2022-09-28T03:51:25.710Z,10.45
2022-09-28T03:53:52.255Z,10.41
2022-09-28T03:56:18.861Z,10.32
2022-09-28T03:58:45.487Z,10.47
2022-09-28T04:01:17.586Z,10.43
2022-09-28T04:03:45.318Z,10.40
2022-09-28T04:06:12.275Z,10.48
2022-09-28T04:08:39.587Z,10.37
2022-09-28T04:11:06.623Z,10.49
2022-09-28T04:13:33.166Z,10.52
2022-09-28T04:16:01.553Z,10.60
2022-09-28T04:18:28.904Z,10.55
2022-09-28T04:21:04.643Z,10.64
2022-09-28T04:23:31.284Z,10.59
2022-09-28T04:25:58.066Z,10.69
2022-09-28T04:28:43.616Z,10.78
2022-09-28T04:31:24.514Z,10.72
2022-09-28T04:33:51.179Z,10.74
2022-09-28T04:36:19.751Z,10.68
2022-09-28T04:38:53.122Z,10.66
2022-09-28T04:41:22.493Z,10.75
2022-09-28T04:43:50.226Z,10.86
2022-09-28T04:46:17.228Z,10.83
2022-09-28T04:48:44.270Z,10.80
2022-09-28T04:51:11.132Z,10.94
2022-09-28T04:53:37.669Z,10.94
2022-09-28T04:56:07.086Z,10.96
2022-09-28T04:58:35.681Z,10.98
2022-09-28T05:01:05.992Z,10.96
2022-09-28T05:03:33.243Z,10.95
2022-09-28T05:06:00.299Z,11.03
2022-09-28T05:08:27.872Z,11.05
2022-09-28T05:10:59.842Z,11.06
2022-09-28T05:13:26.896Z,11.13
2022-09-28T05:16:03.071Z,11.09
2022-09-28T05:18:31.997Z,11.14
2022-09-28T05:20:58.587Z,11.22
2022-09-28T05:23:25.126Z,11.20
2022-09-28T05:25:51.710Z,11.11
2022-09-28T05:28:27.947Z,11.17
2022-09-28T05:31:02.154Z,11.17
2022-09-28T05:33:29.859Z,11.24
2022-09-28T05:36:00.910Z,11.29
2022-09-28T05:38:28.458Z,11.33
2022-09-28T05:40:55.254Z,11.37
2022-09-28T05:43:22.226Z,11.34
2022-09-28T05:45:53.016Z,11.37
2022-09-28T05:48:22.153Z,11.42
2022-09-28T05:50:52.669Z,11.49
2022-09-28T05:53:20.010Z,11.54
2022-09-28T05:55:46.695Z,11.59
2022-09-28T05:58:13.329Z,11.59
2022-09-28T06:00:40.205Z,11.53
2022-09-28T06:03:10.620Z,11.62
2022-09-28T06:05:39.580Z,11.65
2022-09-28T06:08:08.484Z,11.65
2022-09-28T06:10:35.382Z,11.62
2022-09-28T06:13:02.464Z,11.61
2022-09-28T06:15:31.920Z,11.64
2022-09-28T06:18:00.223Z,11.60
2022-09-28T06:20:28.966Z,11.77
2022-09-28T06:22:55.920Z,11.82
2022-09-28T06:25:24.131Z,11.89
2022-09-28T06:28:20.846Z,11.93
2022-09-28T06:30:48.321Z,11.92
2022-09-28T06:33:16.375Z,12.15
2022-09-28T06:35:43.173Z,12.14
2022-09-28T06:38:10.605Z,12.13
2022-09-28T06:40:37.960Z,12.17
2022-09-28T06:43:15.390Z,12.13
2022-09-28T06:45:43.266Z,12.13
2022-09-28T06:48:11.146Z,12.24
2022-09-28T06:50:40.510Z,12.22
2022-09-28T06:53:09.598Z,12.16
2022-09-28T06:55:42.879Z,12.24
2022-09-28T06:58:14.451Z,12.40
2022-09-28T07:00:41.742Z,12.36
2022-09-28T07:03:15.246Z,12.33
2022-09-28T07:05:46.562Z,12.49
2022-09-28T07:08:14.587Z,12.56
2022-09-28T07:10:43.662Z,12.34
2022-09-28T07:13:30.203Z,12.40
2022-09-28T07:16:01.508Z,12.52
2022-09-28T07:18:30.025Z,12.58
2022-09-28T07:20:57.643Z,12.63
2022-09-28T07:23:27.455Z,12.67
2022-09-28T07:25:54.401Z,12.68
2022-09-28T07:28:21.935Z,12.68
2022-09-28T07:30:48.553Z,12.64
2022-09-28T07:33:17.197Z,12.58
2022-09-28T07:35:55.504Z,12.77
2022-09-28T07:38:22.673Z,12.91
2022-09-28T07:41:08.124Z,12.91
2022-09-28T07:43:35.379Z,12.91
2022-09-28T07:46:02.076Z,12.87
2022-09-28T07:48:28.935Z,12.82
2022-09-28T07:50:57.417Z,12.90
2022-09-28T07:53:25.896Z,12.87
2022-09-28T07:56:07.149Z,12.84
2022-09-28T07:58:36.750Z,12.93
2022-09-28T08:01:11.947Z,12.87
2022-09-28T08:03:38.998Z,12.92
2022-09-28T08:06:09.971Z,12.95
2022-09-28T08:08:37.104Z,12.92
2022-09-28T08:11:06.938Z,13.02
2022-09-28T08:13:33.463Z,13.06
2022-09-28T08:16:04.504Z,13.27
2022-09-28T08:18:32.059Z,13.34
2022-09-28T08:21:17.339Z,13.57
2022-09-28T08:23:43.880Z,13.93
2022-09-28T08:26:15.204Z,13.92
2022-09-28T08:28:43.307Z,13.80
2022-09-28T08:31:10.127Z,13.46
2022-09-28T08:33:37.130Z,13.64
2022-09-28T08:36:04.659Z,13.65
2022-09-28T08:38:32.758Z,13.84
2022-09-28T08:41:09.934Z,13.90
2022-09-28T08:43:48.585Z,14.01
2022-09-28T08:46:22.694Z,14.23
2022-09-28T08:49:23.782Z,14.51
2022-09-28T08:51:55.150Z,14.81
2022-09-28T08:54:28.131Z,14.78
2022-09-28T08:57:01.779Z,14.76
2022-09-28T08:59:58.494Z,14.64
2022-09-28T09:02:39.257Z,14.64
2022-09-28T09:05:14.870Z,14.50
2022-09-28T09:07:54.592Z,14.26
2022-09-28T09:11:06.287Z,14.35
2022-09-28T09:13:57.648Z,14.31
2022-09-28T09:16:37.028Z,14.37
2022-09-28T09:19:09.246Z,14.38
2022-09-28T09:21:52.623Z,14.41
2022-09-28T09:24:27.277Z,14.56
2022-09-28T09:27:06.887Z,14.54
2022-09-28T09:29:40.211Z,14.53
2022-09-28T09:32:21.637Z,14.59
2022-09-28T09:35:07.075Z,14.97
2022-09-28T09:38:10.622Z,15.32
2022-09-28T09:40:52.600Z,15.46
2022-09-28T09:43:31.569Z,15.56
2022-09-28T09:46:29.873Z,15.70
2022-09-28T09:49:05.559Z,15.78
2022-09-28T09:51:47.145Z,15.90
2022-09-28T09:54:14.074Z,16.02
2022-09-28T09:56:45.211Z,16.39
2022-09-28T09:59:23.040Z,16.46
2022-09-28T10:01:50.779Z,16.41
2022-09-28T10:04:25.102Z,16.63
2022-09-28T10:06:57.802Z,16.37
2022-09-28T10:09:28.054Z,16.43
2022-09-28T10:11:54.848Z,16.44
2022-09-28T10:14:24.169Z,16.52
2022-09-28T10:16:53.815Z,16.49
2022-09-28T10:19:33.097Z,16.59
2022-09-28T10:22:05.473Z,16.25
2022-09-28T10:24:36.570Z,16.43
2022-09-28T10:27:08.791Z,16.45
2022-09-28T10:29:52.120Z,16.22
2022-09-28T10:32:22.505Z,16.81
2022-09-28T10:34:50.986Z,16.88
2022-09-28T10:37:19.001Z,16.38
2022-09-28T10:39:55.973Z,16.51
2022-09-28T10:42:33.266Z,16.40
2022-09-28T10:45:04.896Z,16.51
2022-09-28T10:47:32.793Z,16.49
2022-09-28T10:49:59.909Z,16.77
2022-09-28T10:52:29.251Z,16.52
2022-09-28T10:54:55.800Z,16.27
2022-09-28T10:57:34.649Z,16.19
2022-09-28T11:00:02.870Z,16.24
2022-09-28T11:02:36.343Z,16.12
2022-09-28T11:05:10.647Z,16.46
2022-09-28T11:07:46.476Z,16.39
2022-09-28T11:10:28.067Z,16.00
2022-09-28T11:12:56.025Z,15.89
2022-09-28T11:15:33.232Z,15.57
2022-09-28T11:18:31.456Z,15.56
2022-09-28T11:21:15.450Z,15.76
2022-09-28T11:23:54.987Z,16.01
2022-09-28T11:26:22.323Z,16.03
2022-09-28T11:28:53.130Z,16.23
2022-09-28T11:31:28.149Z,15.81
2022-09-28T11:34:12.782Z,15.82
2022-09-28T11:36:39.423Z,15.73
2022-09-28T11:39:09.227Z,15.34
2022-09-28T11:41:58.767Z,14.98
2022-09-28T11:44:38.221Z,14.68
2022-09-28T11:47:07.422Z,14.40
2022-09-28T11:49:43.923Z,14.37
2022-09-28T11:52:18.720Z,14.27
2022-09-28T11:54:52.828Z,14.39
2022-09-28T11:57:25.195Z,14.50
2022-09-28T11:59:59.128Z,14.19
2022-09-28T12:03:09.532Z,14.23
2022-09-28T12:05:47.378Z,14.70
2022-09-28T12:08:25.650Z,14.92
2022-09-28T12:11:05.977Z,14.75
2022-09-28T12:13:39.018Z,14.85
2022-09-28T12:16:32.749Z,14.88
2022-09-28T12:19:07.063Z,14.85
2022-09-28T12:21:36.553Z,14.80
2022-09-28T12:24:29.000Z,14.54
2022-09-28T12:27:05.276Z,14.75
2022-09-28T12:29:40.903Z,15.05
2022-09-28T12:32:18.859Z,14.70
2022-09-28T12:34:45.439Z,14.55
2022-09-28T12:37:22.152Z,14.66
2022-09-28T12:40:22.727Z,14.27
2022-09-28T12:43:04.803Z,14.27
2022-09-28T12:46:09.754Z,14.03
2022-09-28T12:48:56.678Z,14.10
2022-09-28T12:51:49.203Z,14.45
2022-09-28T12:54:42.291Z,14.52
2022-09-28T12:57:36.658Z,14.50
2022-09-28T13:00:24.612Z,14.56
2022-09-28T13:03:03.173Z,14.35
2022-09-28T13:05:44.797Z,14.25
2022-09-28T13:08:19.720Z,14.52
2022-09-28T13:11:07.897Z,14.33
2022-09-28T13:13:53.369Z,14.24
2022-09-28T13:16:21.412Z,14.30
2022-09-28T13:19:01.674Z,14.23
2022-09-28T13:21:55.831Z,14.01
2022-09-28T13:24:34.064Z,14.05
2022-09-28T13:27:10.425Z,13.75
2022-09-28T13:32:08.814Z,13.74
2022-09-28T13:34:38.225Z,13.48
2022-09-28T13:37:26.036Z,13.45
2022-09-28T13:39:52.887Z,13.16
2022-09-28T13:42:51.534Z,13.18
2022-09-28T13:45:21.381Z,13.42
2022-09-28T13:48:13.328Z,13.60
2022-09-28T13:50:52.117Z,13.86
2022-09-28T13:53:37.559Z,13.78
2022-09-28T13:56:33.641Z,13.98
2022-09-28T13:59:29.787Z,14.04
2022-09-28T14:02:11.393Z,13.92
2022-09-28T14:04:56.320Z,13.63
2022-09-28T14:07:35.109Z,13.70
2022-09-28T14:10:25.835Z,13.80
2022-09-28T14:12:53.447Z,13.97
2022-09-28T14:15:28.818Z,14.18
2022-09-28T14:18:08.494Z,14.13
2022-09-28T14:20:36.280Z,14.23
2022-09-28T14:23:14.520Z,14.29
2022-09-28T14:26:11.883Z,14.30
2022-09-28T14:29:01.317Z,14.27
2022-09-28T14:31:30.282Z,14.06
2022-09-28T14:34:01.216Z,14.20
2022-09-28T14:36:56.036Z,14.07
2022-09-28T14:39:47.489Z,13.90
2022-09-28T14:42:18.307Z,13.94
2022-09-28T14:45:08.172Z,13.96
2022-09-28T14:47:37.797Z,13.91
2022-09-28T14:50:24.702Z,13.54
2022-09-28T14:52:54.242Z,13.64
2022-09-28T14:55:31.899Z,13.62
2022-09-28T14:57:59.180Z,13.48
2022-09-28T15:00:30.468Z,13.38
2022-09-28T15:03:02.482Z,13.74
2022-09-28T15:05:42.610Z,13.69
2022-09-28T15:08:11.941Z,13.54
2022-09-28T15:10:45.529Z,13.60
2022-09-28T15:13:24.239Z,13.41
2022-09-28T15:16:12.621Z,13.17
2022-09-28T15:19:15.657Z,13.18
2022-09-28T15:21:43.423Z,13.05
2022-09-28T15:24:33.701Z,13.02
2022-09-28T15:27:19.163Z,13.00
2022-09-28T15:29:59.602Z,13.06
2022-09-28T15:32:28.635Z,13.12
2022-09-28T15:34:57.115Z,12.92
2022-09-28T15:37:29.941Z,12.98
2022-09-28T15:39:59.113Z,12.82
2022-09-28T15:42:26.005Z,12.63
2022-09-28T15:45:14.323Z,12.57
2022-09-28T15:47:43.730Z,12.43
2022-09-28T15:50:30.004Z,12.43
2022-09-28T15:53:05.123Z,12.37
2022-09-28T15:55:42.524Z,12.50
2022-09-28T15:58:17.328Z,12.48
2022-09-28T16:01:11.596Z,12.34
2022-09-28T16:03:38.178Z,12.04
2022-09-28T16:06:08.209Z,12.10
2022-09-28T16:08:49.173Z,12.04
2022-09-28T16:11:26.248Z,12.06
2022-09-28T16:13:57.411Z,12.00
2022-09-28T16:16:29.465Z,12.03
2022-09-28T16:18:58.930Z,12.10
2022-09-28T16:21:53.023Z,12.10
2022-09-28T16:24:23.481Z,11.99
2022-09-28T16:26:57.511Z,12.09
2022-09-28T16:29:40.087Z,12.09
2022-09-28T16:32:25.246Z,12.14
2022-09-28T16:35:15.726Z,12.12
2022-09-28T16:37:45.444Z,11.97
2022-09-28T16:40:12.804Z,11.90
2022-09-28T16:42:44.431Z,11.75
2022-09-28T16:45:20.668Z,11.85
2022-09-28T16:47:49.949Z,11.81
2022-09-28T16:50:17.027Z,11.74
2022-09-28T16:53:02.284Z,11.57
2022-09-28T16:55:40.231Z,11.81
2022-09-28T16:58:08.239Z,11.65
2022-09-28T17:00:35.168Z,11.59
2022-09-28T17:03:02.337Z,11.59
2022-09-28T17:05:29.323Z,11.56
2022-09-28T17:08:01.709Z,11.64
2022-09-28T17:11:02.101Z,11.52
2022-09-28T17:13:34.651Z,11.44
2022-09-28T17:16:04.392Z,11.33
2022-09-28T17:18:32.149Z,11.44
2022-09-28T17:21:03.366Z,11.44
2022-09-28T17:23:30.026Z,11.39
2022-09-28T17:25:59.015Z,11.25
2022-09-28T17:28:33.883Z,11.35
2022-09-28T17:31:00.613Z,11.23
2022-09-28T17:33:27.333Z,11.39
2022-09-28T17:36:00.208Z,11.40
2022-09-28T17:38:27.571Z,11.42
2022-09-28T17:40:54.179Z,11.32
2022-09-28T17:43:22.248Z,11.28
2022-09-28T17:45:50.421Z,11.30
2022-09-28T17:48:19.089Z,11.29
2022-09-28T17:50:47.495Z,11.26
2022-09-28T17:53:14.637Z,11.26
2022-09-28T17:55:43.116Z,11.17
2022-09-28T17:58:15.976Z,11.15
2022-09-28T18:00:43.412Z,11.18
2022-09-28T18:03:21.810Z,11.23
2022-09-28T18:06:02.229Z,11.23
2022-09-28T18:08:28.902Z,11.27
2022-09-28T18:10:56.806Z,11.16
2022-09-28T18:13:24.512Z,11.14
2022-09-28T18:15:56.011Z,11.17
2022-09-28T18:18:24.129Z,11.10
2022-09-28T18:20:51.866Z,10.94
2022-09-28T18:23:18.822Z,10.97
2022-09-28T18:25:46.236Z,10.97
2022-09-28T18:28:13.596Z,10.93
2022-09-28T18:30:42.356Z,10.89
2022-09-28T18:33:09.556Z,11.04
2022-09-28T18:35:36.288Z,10.87
2022-09-28T18:38:07.091Z,10.89
2022-09-28T18:40:35.014Z,11.01
2022-09-28T18:43:02.599Z,11.00
2022-09-28T18:45:29.177Z,11.04
2022-09-28T18:47:55.723Z,10.95
2022-09-28T18:50:22.355Z,10.87
2022-09-28T18:52:49.048Z,11.08
2022-09-28T18:55:16.432Z,10.89
2022-09-28T18:57:44.197Z,10.94
2022-09-28T19:00:12.497Z,11.03
2022-09-28T19:02:39.463Z,10.94
2022-09-28T19:05:06.923Z,10.93
2022-09-28T19:07:34.130Z,10.75
2022-09-28T19:10:00.870Z,10.85
2022-09-28T19:12:27.439Z,10.91
2022-09-28T19:14:54.001Z,10.75
2022-09-28T19:17:20.762Z,10.86
2022-09-28T19:19:47.359Z,10.89
2022-09-28T19:22:13.941Z,10.85
2022-09-28T19:24:40.650Z,10.80
2022-09-28T19:27:07.211Z,10.92
2022-09-28T19:29:33.790Z,10.81
2022-09-28T19:32:00.375Z,10.93
2022-09-28T19:34:30.088Z,10.76
2022-09-28T19:36:57.241Z,10.75
2022-09-28T19:39:24.070Z,10.79
2022-09-28T19:41:54.326Z,10.74
2022-09-28T19:44:27.575Z,10.79
2022-09-28T19:46:55.731Z,10.87
2022-09-28T19:49:23.702Z,10.82
2022-09-28T19:54:44.017Z,10.71
2022-09-28T19:57:12.263Z,10.79
2022-09-28T19:59:39.128Z,10.66
2022-09-28T20:02:07.900Z,10.85
2022-09-28T20:04:34.849Z,10.90
2022-09-28T20:07:02.028Z,10.92
2022-09-28T20:09:29.041Z,10.86
2022-09-28T20:11:55.971Z,10.91
2022-09-28T20:14:24.580Z,10.72
2022-09-28T20:16:52.854Z,10.81
2022-09-28T20:19:21.656Z,10.83
2022-09-28T20:21:48.818Z,10.97
2022-09-28T20:24:17.324Z,10.95
2022-09-28T20:26:45.805Z,10.97
2022-09-28T20:29:12.629Z,11.01
2022-09-28T20:31:39.321Z,11.05
2022-09-28T20:34:06.846Z,11.02
2022-09-28T20:36:33.886Z,10.99
2022-09-28T20:39:04.329Z,11.01
2022-09-28T20:41:36.664Z,10.88
2022-09-28T20:44:06.336Z,10.96
2022-09-28T20:46:35.325Z,10.94
2022-09-28T20:49:02.672Z,10.99
2022-09-28T20:51:29.313Z,10.98
2022-09-28T20:53:57.856Z,10.94
2022-09-28T20:56:26.759Z,10.93
2022-09-28T20:58:54.299Z,10.93
2022-09-28T21:01:23.655Z,10.90
2022-09-28T21:03:55.545Z,10.91
2022-09-28T21:06:24.529Z,10.98
2022-09-28T21:08:51.370Z,10.93
2022-09-28T21:11:20.918Z,10.89
2022-09-28T21:13:48.333Z,10.92
2022-09-28T21:16:17.676Z,10.76
2022-09-28T21:18:44.888Z,10.72
2022-09-28T21:21:16.392Z,10.75
2022-09-28T21:23:46.318Z,10.82
2022-09-28T21:26:25.154Z,10.87
2022-09-28T21:28:57.987Z,10.93
2022-09-28T21:31:29.198Z,10.88
2022-09-28T21:33:56.853Z,10.93
2022-09-28T21:36:23.446Z,10.83
2022-09-28T21:38:50.190Z,10.76
2022-09-28T21:41:16.828Z,10.68
2022-09-28T21:43:43.552Z,10.78
2022-09-28T21:46:10.504Z,10.75
2022-09-28T21:48:37.146Z,10.80
2022-09-28T21:51:06.371Z,10.74
2022-09-28T21:53:35.469Z,10.83
2022-09-28T21:56:03.894Z,10.81
2022-09-28T21:58:32.243Z,10.81
2022-09-28T22:01:09.477Z,10.82
2022-09-28T22:03:36.922Z,10.79
2022-09-28T22:06:04.846Z,10.72
2022-09-28T22:08:31.915Z,10.82
2022-09-28T22:11:12.818Z,10.75
2022-09-28T22:13:41.978Z,10.80
2022-09-28T22:16:09.898Z,10.78
2022-09-28T22:18:36.872Z,10.77
2022-09-28T22:21:09.932Z,10.81
2022-09-28T22:23:37.868Z,10.88
2022-09-28T22:26:20.208Z,10.79
2022-09-28T22:28:49.521Z,10.92
2022-09-28T22:31:17.834Z,10.82
2022-09-28T22:33:44.843Z,10.86
2022-09-28T22:36:11.676Z,10.88
2022-09-28T22:38:39.770Z,10.77
2022-09-28T22:41:06.449Z,10.77
2022-09-28T22:43:33.240Z,10.63
2022-09-28T22:46:07.691Z,10.74
2022-09-28T22:48:34.973Z,10.74
2022-09-28T22:51:03.474Z,10.67
2022-09-28T22:53:30.274Z,10.76
2022-09-28T22:55:58.024Z,10.88
2022-09-28T22:58:25.224Z,10.80
2022-09-28T23:00:52.173Z,10.87
2022-09-28T23:03:18.796Z,10.80
2022-09-28T23:05:57.510Z,10.72
2022-09-28T23:08:24.668Z,10.77
2022-09-28T23:10:51.534Z,10.80
2022-09-28T23:13:18.625Z,10.88
2022-09-28T23:15:55.239Z,10.81
2022-09-28T23:18:22.298Z,10.84
2022-09-28T23:21:00.923Z,10.76
2022-09-28T23:23:27.677Z,10.71
2022-09-28T23:25:55.111Z,10.65
2022-09-28T23:28:24.513Z,10.66
2022-09-28T23:30:52.449Z,10.79
2022-09-28T23:33:22.833Z,10.77
2022-09-28T23:35:49.883Z,10.74
2022-09-28T23:38:18.419Z,10.69
2022-09-28T23:40:46.885Z,10.77
2022-09-28T23:43:14.553Z,10.71
2022-09-28T23:45:43.192Z,10.63
2022-09-28T23:48:10.055Z,10.70
2022-09-28T23:50:36.596Z,10.68
2022-09-28T23:53:03.223Z,10.74
2022-09-28T23:55:29.805Z,10.75
2022-09-28T23:57:58.208Z,10.69
